Time;durP1;ratioP1;P1;durP2;ratioP2;P2;SDS_P1;SDS_P2;PMS_P1;PMS_P2;Temp;Humidity;BMP_temperature;BMP_pressure;BME280_temperature;BME280_humidity;BME280_pressure;Samples;Min_cycle;Max_cycle;Signal;HPM_P1;HPM_P2
2022/09/29 00:00:09;;;;;;;2.63;2.42;;;8.20;99.90;;;;;;5051653;28;20424;-51
2022/09/29 00:02:34;;;;;;;3.40;2.78;;;8.20;99.90;;;;;;5051405;28;20029;-51
2022/09/29 00:05:00;;;;;;;4.85;3.30;;;8.20;99.90;;;;;;5059907;28;20107;-52
2022/09/29 00:07:27;;;;;;;4.35;3.15;;;8.20;99.90;;;;;;5070090;28;20048;-51
2022/09/29 00:09:53;;;;;;;3.95;3.05;;;8.20;99.90;;;;;;5071427;28;20020;-52
2022/09/29 00:12:19;;;;;;;3.22;2.92;;;8.10;99.90;;;;;;5071408;28;20047;-51
2022/09/29 00:14:44;;;;;;;3.08;2.75;;;8.10;99.90;;;;;;5071266;28;20020;-52
2022/09/29 00:17:10;;;;;;;5.10;3.00;;;8.10;99.90;;;;;;5071251;28;20032;-52
2022/09/29 00:19:35;;;;;;;3.10;2.80;;;8.00;99.90;;;;;;5063642;28;20024;-52
2022/09/29 00:22:01;;;;;;;3.40;2.90;;;8.00;99.90;;;;;;5051265;28;20052;-56
2022/09/29 00:24:27;;;;;;;6.10;2.88;;;8.00;99.90;;;;;;5051371;28;20476;-54
2022/09/29 00:26:53;;;;;;;3.25;2.90;;;8.00;99.90;;;;;;5051228;28;20021;-54
2022/09/29 00:29:19;;;;;;;2.25;2.10;;;7.90;99.90;;;;;;5051382;28;20052;-54
2022/09/29 00:31:44;;;;;;;2.28;2.08;;;8.00;99.90;;;;;;5053041;28;20456;-55
2022/09/29 00:34:10;;;;;;;3.63;2.47;;;8.00;99.90;;;;;;5061250;28;20479;-52
2022/09/29 00:36:37;;;;;;;2.92;2.63;;;8.00;99.90;;;;;;5075287;28;20048;-54
2022/09/29 00:39:02;;;;;;;3.97;2.13;;;8.00;99.90;;;;;;5073671;28;20521;-52
2022/09/29 00:41:32;;;;;;;2.17;1.90;;;8.00;99.90;;;;;;5075074;28;20054;-55
2022/09/29 00:44:12;;;;;;;2.55;2.08;;;8.00;99.90;;;;;;5075008;28;20017;-52
2022/09/29 00:47:10;;;;;;;3.20;2.38;;;8.00;99.90;;;;;;5074999;28;20017;-53
2022/09/29 00:49:50;;;;;;;2.45;1.83;;;7.90;99.90;;;;;;5074261;28;20507;-53
2022/09/29 00:52:33;;;;;;;2.05;1.80;;;7.90;99.90;;;;;;5074967;28;20063;-54
2022/09/29 00:55:12;;;;;;;2.20;2.10;;;7.80;99.90;;;;;;5074805;28;20031;-55
2022/09/29 00:57:53;;;;;;;4.32;2.03;;;7.80;99.90;;;;;;5073586;28;20098;-53
2022/09/29 01:00:19;;;;;;;2.20;2.10;;;7.80;99.90;;;;;;5074802;28;20016;-54
2022/09/29 01:03:09;;;;;;;2.25;1.88;;;7.70;99.90;;;;;;5074578;28;20044;-52
2022/09/29 01:05:50;;;;;;;2.40;2.20;;;7.70;99.90;;;;;;5054757;28;20021;-53
2022/09/29 01:08:25;;;;;;;2.08;1.85;;;7.60;99.90;;;;;;5054580;28;20053;-53
2022/09/29 01:10:52;;;;;;;2.45;2.10;;;7.60;99.90;;;;;;5054483;28;20380;-51
2022/09/29 01:13:18;;;;;;;2.10;2.00;;;7.50;99.90;;;;;;5054562;28;20383;-55
2022/09/29 01:15:44;;;;;;;2.45;2.00;;;7.60;99.90;;;;;;5054354;28;20037;-55
2022/09/29 01:18:10;;;;;;;1.90;1.80;;;7.50;99.90;;;;;;5058490;28;20566;-55
2022/09/29 01:21:06;;;;;;;2.00;1.90;;;7.60;99.90;;;;;;5073868;28;20046;-55
2022/09/29 01:23:32;;;;;;;2.08;1.70;;;7.60;99.90;;;;;;5073202;28;20035;-54
2022/09/29 01:26:43;;;;;;;3.53;2.00;;;7.60;99.90;;;;;;5074096;28;20021;-55
2022/09/29 01:29:14;;;;;;;2.08;1.98;;;7.50;99.90;;;;;;5073696;28;20050;-52
2022/09/29 01:31:39;;;;;;;4.15;2.03;;;7.50;99.90;;;;;;5073459;28;20103;-51
2022/09/29 01:34:42;;;;;;;2.42;2.20;;;7.50;99.90;;;;;;5063751;28;20120;-52
2022/09/29 01:37:30;;;;;;;11.15;2.55;;;7.50;99.90;;;;;;5053079;28;20127;-52
2022/09/29 01:40:15;;;;;;;2.42;2.28;;;7.50;99.90;;;;;;5053076;28;20603;-53
2022/09/29 01:43:00;;;;;;;2.25;2.15;;;7.40;99.90;;;;;;5051681;28;20027;-54
2022/09/29 01:45:31;;;;;;;4.25;2.90;;;7.50;99.90;;;;;;5052676;28;20037;-53
2022/09/29 01:48:12;;;;;;;2.53;2.33;;;7.40;99.90;;;;;;5054349;28;20048;-52
2022/09/29 01:50:46;;;;;;;2.20;2.10;;;7.50;99.90;;;;;;5073563;28;20033;-56
2022/09/29 01:53:23;;;;;;;2.60;2.30;;;7.50;99.90;;;;;;5072011;28;20025;-52
2022/09/29 01:55:52;;;;;;;2.60;2.40;;;7.50;99.90;;;;;;5053678;28;20027;-54
2022/09/29 01:58:25;;;;;;;2.90;2.58;;;7.50;99.90;;;;;;5053696;28;20120;-52
2022/09/29 02:00:56;;;;;;;4.80;2.40;;;7.50;99.90;;;;;;5053553;28;20017;-54
2022/09/29 02:03:34;;;;;;;2.33;2.13;;;7.50;99.90;;;;;;5053670;28;20115;-52
2022/09/29 02:06:03;;;;;;;4.30;2.58;;;7.50;99.90;;;;;;5053478;28;20021;-54
2022/09/29 02:08:39;;;;;;;2.67;2.47;;;7.60;99.90;;;;;;5057765;28;20053;-52
2022/09/29 02:11:08;;;;;;;5.25;2.80;;;7.50;99.90;;;;;;5071917;28;20659;-54
2022/09/29 02:13:59;;;;;;;2.75;2.33;;;7.50;99.90;;;;;;5073386;28;20052;-52
2022/09/29 02:16:28;;;;;;;4.93;2.45;;;7.50;99.90;;;;;;5073654;28;20025;-52
2022/09/29 02:19:00;;;;;;;2.70;2.50;;;7.50;99.90;;;;;;5073088;28;20028;-53
2022/09/29 02:21:27;;;;;;;2.58;2.38;;;7.50;99.90;;;;;;5073216;28;20414;-54
2022/09/29 02:23:54;;;;;;;3.85;2.42;;;7.60;99.90;;;;;;5066276;28;20025;-52
2022/09/29 02:26:20;;;;;;;2.72;2.53;;;7.60;99.90;;;;;;5053106;28;20021;-52
2022/09/29 02:28:46;;;;;;;2.67;2.45;;;7.60;99.90;;;;;;5053041;28;20032;-52
2022/09/29 02:31:13;;;;;;;9.07;3.42;;;7.50;99.90;;;;;;5051856;28;20543;-51
2022/09/29 02:33:38;;;;;;;4.05;2.60;;;7.50;99.90;;;;;;5053127;28;20035;-54
2022/09/29 02:36:32;;;;;;;2.55;2.35;;;7.50;99.90;;;;;;5052900;28;20111;-53
2022/09/29 02:39:06;;;;;;;11.37;5.13;;;7.50;99.90;;;;;;5061641;28;20078;-53
2022/09/29 02:41:50;;;;;;;5.43;4.93;;;7.50;99.90;;;;;;5072936;28;20031;-53
2022/09/29 02:44:21;;;;;;;3.13;2.80;;;7.50;99.90;;;;;;5072781;28;20024;-52
2022/09/29 02:46:53;;;;;;;3.38;3.08;;;7.40;99.90;;;;;;5072580;28;20031;-56
2022/09/29 02:49:38;;;;;;;5.53;4.78;;;7.40;99.90;;;;;;5072605;28;20029;-54
2022/09/29 02:52:30;;;;;;;4.65;4.22;;;7.40;99.90;;;;;;5072631;28;20027;-52
2022/09/29 02:55:24;;;;;;;3.88;3.22;;;7.40;99.90;;;;;;5052036;28;20029;-55
2022/09/29 02:58:02;;;;;;;4.93;4.35;;;7.40;99.90;;;;;;5052366;28;20028;-54
2022/09/29 03:00:28;;;;;;;5.10;4.40;;;7.30;99.90;;;;;;5051234;28;20033;-56
2022/09/29 03:02:54;;;;;;;4.00;3.58;;;7.30;99.90;;;;;;5052396;28;20029;-52
2022/09/29 03:05:21;;;;;;;3.50;3.20;;;7.20;99.90;;;;;;5051100;28;20032;-52
2022/09/29 03:07:47;;;;;;;3.60;3.30;;;7.20;99.90;;;;;;5052110;28;20638;-55
2022/09/29 03:10:14;;;;;;;12.75;2.80;;;7.10;99.90;;;;;;5052279;28;20064;-52
2022/09/29 03:12:40;;;;;;;3.58;2.92;;;7.10;99.90;;;;;;5052187;28;20040;-55
2022/09/29 03:15:07;;;;;;;4.10;2.80;;;7.00;99.90;;;;;;5052379;28;20029;-53
2022/09/29 03:17:33;;;;;;;3.15;2.85;;;7.00;99.90;;;;;;5052252;28;20057;-55
2022/09/29 03:19:58;;;;;;;4.55;4.13;;;7.00;99.90;;;;;;5052200;28;20063;-54
2022/09/29 03:22:24;;;;;;;4.38;4.07;;;6.80;99.90;;;;;;5052224;28;20024;-55
2022/09/29 03:24:50;;;;;;;6.32;3.65;;;6.80;99.90;;;;;;5069609;28;20057;-55
2022/09/29 03:27:16;;;;;;;3.88;2.90;;;6.70;99.90;;;;;;5071992;28;20107;-53
2022/09/29 03:29:41;;;;;;;3.22;2.92;;;6.70;99.90;;;;;;5071882;28;20033;-55
2022/09/29 03:32:07;;;;;;;3.20;2.90;;;6.60;99.90;;;;;;5071977;28;20031;-52
2022/09/29 03:34:34;;;;;;;4.43;3.60;;;6.60;99.90;;;;;;5071977;28;20420;-55
2022/09/29 03:37:00;;;;;;;3.95;2.60;;;6.60;99.90;;;;;;5071705;28;20031;-55
2022/09/29 03:39:26;;;;;;;3.25;2.95;;;6.50;99.90;;;;;;5071591;28;20097;-52
2022/09/29 03:41:53;;;;;;;2.63;2.42;;;6.40;99.90;;;;;;5053025;28;20637;-52
2022/09/29 03:44:19;;;;;;;2.95;2.70;;;6.30;99.90;;;;;;5051889;28;20052;-53
2022/09/29 03:46:46;;;;;;;5.75;3.42;;;6.30;99.90;;;;;;5051674;28;20049;-56
2022/09/29 03:49:14;;;;;;;3.92;3.33;;;6.20;99.90;;;;;;5051758;28;20389;-57
2022/09/29 03:51:41;;;;;;;3.47;3.20;;;6.10;99.90;;;;;;5051460;28;20025;-55
2022/09/29 03:54:07;;;;;;;4.10;3.60;;;6.00;99.90;;;;;;5051504;28;20038;-55
2022/09/29 03:56:33;;;;;;;4.60;3.22;;;5.90;99.90;;;;;;5051582;28;20459;-56
2022/09/29 03:58:59;;;;;;;8.65;3.05;;;5.90;99.90;;;;;;5051220;28;20033;-54
2022/09/29 04:01:24;;;;;;;3.95;2.90;;;5.90;99.90;;;;;;5051635;28;20079;-53
2022/09/29 04:03:50;;;;;;;5.35;2.80;;;5.80;99.90;;;;;;5051425;28;20030;-55
2022/09/29 04:06:16;;;;;;;7.30;2.95;;;5.80;99.90;;;;;;5051355;28;20025;-51
2022/09/29 04:08:42;;;;;;;5.43;3.47;;;5.80;99.90;;;;;;5051258;28;20049;-52
2022/09/29 04:11:08;;;;;;;6.80;3.55;;;5.80;99.90;;;;;;5066164;28;20040;-53
2022/09/29 04:13:34;;;;;;;3.17;2.88;;;5.70;99.90;;;;;;5071510;28;20028;-54
2022/09/29 04:16:02;;;;;;;5.55;3.13;;;5.70;99.90;;;;;;5071354;28;20029;-53
2022/09/29 04:18:28;;;;;;;6.45;3.35;;;5.60;99.90;;;;;;5071011;28;20025;-52
2022/09/29 04:20:59;;;;;;;3.60;2.95;;;5.60;99.90;;;;;;5069908;28;20056;-51
2022/09/29 04:23:28;;;;;;;6.72;2.72;;;5.60;99.90;;;;;;5071429;28;20090;-52
2022/09/29 04:25:54;;;;;;;3.13;2.80;;;5.60;99.90;;;;;;5069956;28;20024;-52
2022/09/29 04:28:20;;;;;;;3.08;2.70;;;5.60;99.90;;;;;;5070091;28;20519;-54
2022/09/29 04:30:46;;;;;;;3.17;2.88;;;5.60;99.90;;;;;;5071179;28;20073;-52
2022/09/29 04:33:11;;;;;;;3.00;2.80;;;5.50;99.90;;;;;;5071067;28;20059;-55
2022/09/29 04:35:37;;;;;;;3.08;2.63;;;5.50;99.90;;;;;;5051537;28;20029;-54
2022/09/29 04:38:03;;;;;;;3.05;2.85;;;5.50;99.90;;;;;;5051107;28;20416;-52
2022/09/29 04:40:29;;;;;;;4.93;2.67;;;5.50;99.90;;;;;;5051251;28;20444;-55
2022/09/29 04:42:54;;;;;;;3.08;2.88;;;5.50;99.90;;;;;;5051045;28;20052;-52
2022/09/29 04:45:20;;;;;;;3.50;2.97;;;5.60;99.90;;;;;;5051099;28;20025;-52
2022/09/29 04:47:46;;;;;;;9.80;3.13;;;5.60;99.90;;;;;;5050945;28;20025;-53
2022/09/29 04:50:11;;;;;;;4.55;2.90;;;5.70;99.90;;;;;;5069151;28;20052;-53
2022/09/29 04:52:37;;;;;;;3.53;3.20;;;5.70;99.90;;;;;;5069793;28;20031;-52
2022/09/29 04:55:03;;;;;;;3.42;3.13;;;5.60;99.90;;;;;;5070747;28;20063;-52
2022/09/29 04:57:29;;;;;;;12.32;5.85;;;5.60;99.90;;;;;;5071005;28;20032;-54
2022/09/29 04:59:55;;;;;;;29.10;13.55;;;5.60;99.90;;;;;;5070947;28;20448;-54
2022/09/29 05:02:21;;;;;;;16.95;6.95;;;5.60;99.90;;;;;;5069612;28;20019;-52
2022/09/29 05:04:46;;;;;;;17.73;9.00;;;5.60;99.90;;;;;;5053654;28;20486;-53
2022/09/29 05:07:13;;;;;;;27.05;17.83;;;5.60;99.90;;;;;;5050695;28;20043;-54
2022/09/29 05:09:39;;;;;;;27.98;15.90;;;5.60;99.90;;;;;;5050865;28;20121;-54
2022/09/29 05:12:05;;;;;;;5.57;4.55;;;5.50;99.90;;;;;;5050840;28;20419;-52
2022/09/29 05:14:30;;;;;;;5.35;4.75;;;5.40;99.90;;;;;;5050764;28;20017;-54
2022/09/29 05:16:57;;;;;;;6.72;5.13;;;5.40;99.90;;;;;;5051142;28;20033;-53
2022/09/29 05:19:23;;;;;;;41.78;18.55;;;5.40;99.90;;;;;;5054355;28;20060;-52
2022/09/29 05:21:49;;;;;;;26.45;15.23;;;5.40;99.90;;;;;;5055323;28;20488;-52
2022/09/29 05:24:14;;;;;;;10.07;8.75;;;5.30;99.90;;;;;;5054327;28;20025;-54
2022/09/29 05:26:40;;;;;;;6.97;3.33;;;5.40;99.90;;;;;;5054346;28;20115;-53
2022/09/29 05:29:06;;;;;;;3.70;3.40;;;5.30;99.90;;;;;;5054260;28;20547;-52
2022/09/29 05:31:32;;;;;;;8.98;3.90;;;5.40;99.90;;;;;;5054147;28;20017;-54
2022/09/29 05:33:58;;;;;;;7.32;3.25;;;5.40;99.90;;;;;;5063612;28;20032;-52
2022/09/29 05:36:24;;;;;;;5.07;2.85;;;5.40;99.90;;;;;;5073392;28;20035;-51
2022/09/29 05:38:50;;;;;;;4.60;2.83;;;5.30;99.90;;;;;;5073400;28;20118;-56
2022/09/29 05:41:17;;;;;;;2.75;2.13;;;5.40;99.90;;;;;;5073317;28;20025;-52
2022/09/29 05:43:43;;;;;;;3.45;2.75;;;5.40;99.90;;;;;;5072935;28;20032;-52
2022/09/29 05:46:09;;;;;;;3.42;3.13;;;5.50;99.90;;;;;;5072622;28;20013;-52
2022/09/29 05:48:36;;;;;;;3.25;2.95;;;5.50;99.90;;;;;;5072692;28;20499;-54
2022/09/29 05:51:10;;;;;;;3.22;2.95;;;5.50;99.90;;;;;;5072397;28;20278;-53
2022/09/29 05:53:36;;;;;;;6.78;3.17;;;5.50;99.90;;;;;;5072873;28;20475;-53
2022/09/29 05:56:10;;;;;;;4.00;3.47;;;5.60;99.90;;;;;;5072381;28;20036;-53
2022/09/29 05:58:37;;;;;;;7.40;3.78;;;5.60;99.90;;;;;;5072422;28;20050;-52
2022/09/29 06:01:14;;;;;;;6.13;3.70;;;5.60;99.90;;;;;;5073335;28;20020;-53
2022/09/29 06:03:40;;;;;;;4.18;3.78;;;5.50;99.90;;;;;;5066220;28;20471;-54
2022/09/29 06:06:08;;;;;;;5.80;4.95;;;5.50;99.90;;;;;;5053521;28;20060;-51
2022/09/29 06:08:34;;;;;;;4.35;3.70;;;5.60;99.90;;;;;;5053386;28;20056;-53
2022/09/29 06:11:05;;;;;;;5.32;3.08;;;5.70;99.90;;;;;;5053366;28;20102;-52
2022/09/29 06:13:31;;;;;;;3.67;3.38;;;5.70;99.90;;;;;;5053449;28;20376;-53
2022/09/29 06:16:00;;;;;;;5.03;4.03;;;5.80;99.90;;;;;;5053319;28;20033;-53
2022/09/29 06:18:26;;;;;;;5.60;5.07;;;5.90;99.90;;;;;;5053252;28;20028;-51
2022/09/29 06:20:51;;;;;;;15.30;9.10;;;6.10;99.90;;;;;;5053171;28;20031;-52
2022/09/29 06:23:17;;;;;;;13.85;7.82;;;6.20;99.90;;;;;;5053235;28;20068;-56
2022/09/29 06:25:42;;;;;;;13.10;6.50;;;6.40;99.90;;;;;;5052811;28;20045;-51
2022/09/29 06:28:08;;;;;;;9.27;5.28;;;6.60;99.90;;;;;;5053040;28;20090;-56
2022/09/29 06:30:34;;;;;;;6.30;4.25;;;6.90;99.90;;;;;;5053115;28;20419;-52
2022/09/29 06:32:59;;;;;;;4.95;4.38;;;7.40;99.90;;;;;;5058120;28;20033;-53
2022/09/29 06:38:09;;;;;;;29.73;11.98;;;8.00;99.90;;;;;;5072585;28;20039;-56
2022/09/29 06:40:35;;;;;;;16.30;9.02;;;8.20;99.90;;;;;;5071727;28;20032;-53
2022/09/29 06:43:01;;;;;;;7.38;5.10;;;8.30;99.90;;;;;;5070222;28;20468;-53
2022/09/29 06:45:27;;;;;;;3.88;3.08;;;8.40;99.90;;;;;;5071758;28;20024;-53
2022/09/29 06:47:58;;;;;;;3.30;3.00;;;8.40;99.90;;;;;;5071324;28;20452;-53
2022/09/29 06:50:24;;;;;;;3.25;2.50;;;8.50;99.90;;;;;;5071501;28;20443;-55
2022/09/29 06:52:59;;;;;;;3.83;3.42;;;8.70;99.90;;;;;;5071229;28;20108;-52
2022/09/29 06:55:24;;;;;;;10.23;3.60;;;8.70;99.90;;;;;;5071405;28;20294;-56
2022/09/29 06:57:50;;;;;;;4.00;2.88;;;8.90;99.90;;;;;;5054051;28;20051;-55
2022/09/29 07:00:16;;;;;;;6.47;4.75;;;9.00;99.90;;;;;;5050058;28;20025;-54
2022/09/29 07:02:45;;;;;;;3.80;3.50;;;9.10;99.90;;;;;;5051226;28;20021;-53
2022/09/29 07:05:11;;;;;;;4.20;3.70;;;9.10;99.90;;;;;;5051265;28;20388;-54
2022/09/29 07:07:37;;;;;;;7.57;3.60;;;9.30;99.90;;;;;;5051076;28;20075;-52
2022/09/29 07:10:02;;;;;;;4.05;3.13;;;9.40;99.90;;;;;;5051113;28;20063;-55
2022/09/29 07:12:29;;;;;;;8.02;3.30;;;9.40;99.90;;;;;;5052269;28;20025;-56
2022/09/29 07:14:54;;;;;;;5.47;3.10;;;9.50;99.90;;;;;;5071571;28;20471;-52
2022/09/29 07:17:20;;;;;;;4.75;4.03;;;9.80;99.90;;;;;;5068793;28;20028;-52
2022/09/29 07:19:54;;;;;;;4.97;3.55;;;9.60;99.90;;;;;;5065386;28;20021;-51
2022/09/29 07:22:20;;;;;;;6.90;3.70;;;9.60;99.90;;;;;;5052106;28;20052;-54
2022/09/29 07:24:47;;;;;;;4.25;3.63;;;9.60;99.90;;;;;;5051914;28;20029;-53
2022/09/29 07:27:13;;;;;;;3.80;3.45;;;9.70;99.90;;;;;;5053043;28;20025;-52
2022/09/29 07:29:38;;;;;;;7.88;3.20;;;9.70;99.90;;;;;;5051796;28;20036;-53
2022/09/29 07:32:04;;;;;;;3.95;3.38;;;9.70;99.90;;;;;;5065729;28;20069;-56
2022/09/29 07:34:30;;;;;;;6.88;3.72;;;9.70;99.90;;;;;;5066239;28;20651;-54
2022/09/29 07:36:55;;;;;;;3.83;3.47;;;9.70;99.90;;;;;;5051598;28;20036;-52
2022/09/29 07:39:21;;;;;;;6.82;4.05;;;9.70;99.90;;;;;;5051424;28;20032;-52
2022/09/29 07:41:47;;;;;;;4.97;3.83;;;9.70;99.90;;;;;;5051443;28;20138;-52
2022/09/29 07:44:13;;;;;;;4.75;3.78;;;9.80;99.90;;;;;;5051882;28;20029;-52
2022/09/29 07:46:38;;;;;;;7.00;4.03;;;9.90;99.90;;;;;;5051525;28;20033;-53
2022/09/29 07:49:04;;;;;;;26.75;22.00;;;10.00;99.90;;;;;;5051521;28;20024;-52
2022/09/29 07:51:31;;;;;;;96.78;57.25;;;10.00;99.90;;;;;;5050005;28;20021;-53
2022/09/29 07:54:01;;;;;;;9.18;8.23;;;10.20;99.90;;;;;;5051126;28;20465;-53
2022/09/29 07:56:27;;;;;;;8.30;4.85;;;10.20;99.90;;;;;;5062529;28;20361;-54
2022/09/29 07:58:52;;;;;;;5.60;5.07;;;10.30;99.90;;;;;;5071352;28;20082;-53
2022/09/29 08:01:19;;;;;;;5.05;4.65;;;10.40;99.90;;;;;;5071398;28;20752;-52
2022/09/29 08:03:51;;;;;;;6.28;5.68;;;10.40;99.90;;;;;;5071375;28;20052;-63
2022/09/29 08:06:17;;;;;;;7.45;6.75;;;10.40;99.90;;;;;;5071512;28;20379;-53
2022/09/29 08:08:43;;;;;;;11.73;4.55;;;10.70;99.90;;;;;;5071140;28;20131;-54
2022/09/29 08:11:14;;;;;;;8.55;4.53;;;10.70;99.90;;;;;;5059413;28;20443;-58
2022/09/29 08:13:40;;;;;;;6.75;3.22;;;10.70;99.90;;;;;;5051460;28;20075;-57
2022/09/29 08:16:10;;;;;;;5.15;3.58;;;10.70;99.90;;;;;;5050057;28;20052;-54
2022/09/29 08:18:36;;;;;;;3.95;3.15;;;10.60;99.90;;;;;;5049877;28;20430;-56
2022/09/29 08:21:03;;;;;;;4.97;4.00;;;10.80;99.90;;;;;;5050912;28;20033;-58
2022/09/29 08:23:30;;;;;;;3.10;2.90;;;10.80;99.90;;;;;;5066439;28;20029;-60
2022/09/29 08:26:01;;;;;;;2.70;2.50;;;10.80;99.90;;;;;;5070986;28;20017;-56
2022/09/29 08:28:28;;;;;;;8.02;3.20;;;10.90;99.90;;;;;;5071041;28;20016;-55
2022/09/29 08:30:53;;;;;;;3.15;2.85;;;11.00;99.90;;;;;;5052783;28;20064;-53
2022/09/29 08:33:19;;;;;;;4.28;3.80;;;11.10;99.90;;;;;;5071276;28;20599;-57
2022/09/29 08:35:45;;;;;;;10.02;7.03;;;11.20;99.90;;;;;;5069391;28;20051;-56
2022/09/29 08:38:10;;;;;;;54.67;23.77;;;11.20;99.90;;;;;;5070976;28;20033;-54
2022/09/29 08:40:37;;;;;;;23.60;11.23;;;11.00;99.90;;;;;;5068369;28;20047;-53
2022/09/29 08:43:05;;;;;;;13.65;9.82;;;11.00;99.90;;;;;;5071009;28;20028;-56
2022/09/29 08:45:38;;;;;;;15.82;8.18;;;11.10;99.90;;;;;;5070992;28;20025;-52
2022/09/29 08:48:25;;;;;;;11.38;6.30;;;11.10;99.90;;;;;;5070697;28;20033;-53
2022/09/29 08:51:02;;;;;;;10.85;6.90;;;11.40;99.90;;;;;;5070976;28;20091;-56
2022/09/29 08:53:30;;;;;;;10.55;6.85;;;11.60;99.90;;;;;;5073980;28;20472;-53
2022/09/29 08:56:03;;;;;;;9.25;6.43;;;11.80;99.90;;;;;;5074620;28;20029;-55
2022/09/29 08:58:31;;;;;;;9.00;3.50;;;11.90;99.90;;;;;;5074763;28;20111;-55
2022/09/29 09:01:08;;;;;;;12.88;9.27;;;12.20;99.90;;;;;;5074773;28;20116;-55
2022/09/29 09:03:44;;;;;;;13.25;6.05;;;12.30;99.90;;;;;;5073140;28;20059;-54
2022/09/29 09:06:20;;;;;;;6.90;3.45;;;12.70;99.90;;;;;;5074731;28;20112;-56
2022/09/29 09:09:06;;;;;;;20.48;11.18;;;12.70;99.90;;;;;;5074255;28;20043;-51
2022/09/29 09:11:55;;;;;;;11.45;6.47;;;12.80;99.90;;;;;;5074637;28;20024;-53
2022/09/29 09:15:05;;;;;;;14.27;6.13;;;12.60;99.90;;;;;;5054561;28;20075;-53
2022/09/29 09:17:44;;;;;;;15.82;6.53;;;12.50;99.90;;;;;;5054411;28;20029;-54
2022/09/29 09:20:25;;;;;;;5.03;3.40;;;12.30;99.90;;;;;;5054556;28;20384;-55
2022/09/29 09:22:58;;;;;;;5.57;2.83;;;12.40;99.90;;;;;;5053989;28;20025;-53
2022/09/29 09:25:23;;;;;;;12.48;7.63;;;12.70;99.90;;;;;;5054363;28;20025;-54
2022/09/29 09:28:09;;;;;;;15.40;5.65;;;12.90;99.90;;;;;;5054206;28;20031;-56
2022/09/29 09:30:42;;;;;;;7.60;3.78;;;12.90;99.90;;;;;;5054313;28;20052;-54
2022/09/29 09:33:21;;;;;;;7.13;4.20;;;13.40;99.90;;;;;;5054120;28;20033;-57
2022/09/29 09:35:57;;;;;;;10.18;3.63;;;13.50;99.90;;;;;;5054120;28;20047;-52
2022/09/29 09:38:49;;;;;;;18.52;6.88;;;13.90;99.90;;;;;;5053702;28;20064;-54
2022/09/29 09:41:18;;;;;;;16.30;3.90;;;14.30;99.90;;;;;;5062833;28;20041;-58
2022/09/29 09:43:55;;;;;;;13.82;3.97;;;14.70;99.90;;;;;;5073782;28;20064;-56
2022/09/29 09:46:40;;;;;;;10.05;4.18;;;14.80;99.90;;;;;;5073743;28;20081;-56
2022/09/29 09:49:12;;;;;;;8.85;4.05;;;14.80;99.90;;;;;;5073460;28;20035;-59
2022/09/29 09:51:50;;;;;;;5.95;3.70;;;14.10;99.90;;;;;;5073596;28;20017;-59
2022/09/29 09:54:51;;;;;;;3.40;1.85;;;13.70;99.90;;;;;;5073216;28;20360;-58
2022/09/29 09:57:44;;;;;;;2.50;1.98;;;14.20;99.90;;;;;;5059043;28;20093;-59
2022/09/29 10:00:27;;;;;;;2.47;1.48;;;14.30;99.90;;;;;;5052972;28;20012;-57
2022/09/29 10:02:55;;;;;;;2.65;1.90;;;14.30;99.50;;;;;;5053105;28;20186;-59
2022/09/29 10:05:33;;;;;;;1.83;1.70;;;14.10;99.90;;;;;;5053491;28;20009;-55
2022/09/29 10:07:59;;;;;;;3.63;1.67;;;14.40;99.90;;;;;;5053166;28;20059;-59
2022/09/29 10:10:28;;;;;;;4.20;1.30;;;14.80;99.90;;;;;;5053281;28;20024;-52
2022/09/29 10:13:00;;;;;;;6.57;2.10;;;14.80;99.40;;;;;;5072118;28;20036;-56
2022/09/29 10:16:00;;;;;;;1.20;1.10;;;14.80;99.90;;;;;;5073457;28;20071;-55
2022/09/29 10:18:35;;;;;;;1.88;1.50;;;14.70;99.50;;;;;;5073400;28;20024;-55
2022/09/29 10:21:00;;;;;;;1.40;1.27;;;14.90;99.80;;;;;;5073022;28;20024;-56
2022/09/29 10:23:32;;;;;;;1.45;1.20;;;15.20;98.90;;;;;;5073080;28;20532;-56
2022/09/29 10:26:07;;;;;;;1.10;1.00;;;14.90;98.50;;;;;;5072727;28;20543;-53
2022/09/29 10:28:40;;;;;;;2.00;1.20;;;14.80;97.60;;;;;;5072773;28;20028;-55
2022/09/29 10:31:28;;;;;;;1.10;1.10;;;14.70;97.70;;;;;;5072915;28;20060;-54
2022/09/29 10:34:16;;;;;;;1.95;1.13;;;14.90;99.20;;;;;;5072785;28;20029;-52
2022/09/29 10:36:58;;;;;;;3.63;1.20;;;15.20;98.10;;;;;;5072751;28;20352;-55
2022/09/29 10:39:39;;;;;;;3.07;1.97;;;15.80;98.20;;;;;;5071767;28;20025;-54
2022/09/29 10:42:36;;;;;;;1.13;0.90;;;15.70;97.40;;;;;;5055864;28;20017;-57
2022/09/29 10:45:15;;;;;;;0.70;0.70;;;16.30;96.70;;;;;;5056012;28;20043;-53
2022/09/29 10:48:07;;;;;;;1.35;1.10;;;16.70;95.90;;;;;;5052665;28;20119;-55
2022/09/29 10:50:35;;;;;;;1.35;1.05;;;17.60;95.10;;;;;;5052474;28;20496;-54
2022/09/29 10:53:05;;;;;;;3.38;1.05;;;17.60;94.10;;;;;;5052563;28;20032;-53
2022/09/29 10:55:46;;;;;;;2.22;1.13;;;17.00;93.00;;;;;;5052476;28;20055;-55
2022/09/29 10:58:24;;;;;;;2.05;1.50;;;16.40;94.30;;;;;;5052574;28;20380;-53
2022/09/29 11:01:06;;;;;;;2.08;1.23;;;16.30;96.00;;;;;;5052377;28;20025;-55
2022/09/29 11:03:32;;;;;;;2.45;1.70;;;16.00;96.90;;;;;;5052391;28;20013;-55
2022/09/29 11:06:02;;;;;;;1.23;1.15;;;16.20;96.20;;;;;;5053249;28;20025;-55
2022/09/29 11:08:28;;;;;;;3.92;1.30;;;16.00;95.30;;;;;;5052116;28;20423;-55
2022/09/29 11:11:08;;;;;;;1.88;1.45;;;16.00;95.30;;;;;;5051938;28;20380;-55
2022/09/29 11:13:39;;;;;;;1.65;1.30;;;16.30;95.00;;;;;;5052256;28;20024;-56
2022/09/29 11:16:25;;;;;;;3.47;1.52;;;16.90;96.10;;;;;;5050990;28;20021;-55
2022/09/29 11:18:54;;;;;;;2.28;1.20;;;17.70;93.60;;;;;;5051554;28;20069;-53
2022/09/29 11:21:22;;;;;;;2.88;1.10;;;17.90;93.70;;;;;;5052133;28;20017;-56
2022/09/29 11:24:11;;;;;;;1.50;1.00;;;18.70;92.80;;;;;;5051843;28;20021;-57
2022/09/29 11:26:52;;;;;;;1.27;1.17;;;19.10;91.10;;;;;;5052154;28;20017;-57
2022/09/29 11:29:38;;;;;;;1.10;0.85;;;20.10;91.80;;;;;;5051947;28;20029;-55
2022/09/29 11:32:24;;;;;;;3.60;1.00;;;19.80;89.40;;;;;;5051558;28;20029;-56
2022/09/29 11:35:20;;;;;;;1.80;1.00;;;20.10;89.50;;;;;;5061783;28;20092;-56
2022/09/29 11:37:54;;;;;;;5.18;1.05;;;20.60;85.90;;;;;;5071176;28;20059;-55
2022/09/29 11:40:27;;;;;;;1.70;0.93;;;20.50;84.50;;;;;;5071979;28;20021;-54
2022/09/29 11:43:36;;;;;;;1.10;0.85;;;20.70;83.60;;;;;;5071503;28;20016;-57
2022/09/29 11:46:21;;;;;;;1.80;1.35;;;19.70;82.00;;;;;;5052243;28;20025;-57
2022/09/29 11:48:53;;;;;;;3.78;1.15;;;19.10;85.80;;;;;;5051411;28;20024;-55
2022/09/29 11:51:56;;;;;;;1.40;1.00;;;19.50;86.40;;;;;;5051688;28;20028;-55
2022/09/29 11:54:28;;;;;;;3.38;1.50;;;20.00;85.50;;;;;;5051780;28;20014;-57
2022/09/29 11:56:56;;;;;;;2.42;1.65;;;20.20;84.00;;;;;;5051243;28;20103;-56
2022/09/29 11:59:31;;;;;;;3.03;1.27;;;19.30;85.60;;;;;;5051402;28;20021;-56
2022/09/29 12:02:41;;;;;;;2.97;1.20;;;18.60;87.10;;;;;;5050670;28;20025;-54
2022/09/29 12:05:36;;;;;;;2.70;1.58;;;19.60;88.70;;;;;;5046057;28;20047;-54
2022/09/29 12:08:22;;;;;;;2.50;1.40;;;21.90;82.10;;;;;;5044251;28;20532;-58
2022/09/29 12:10:59;;;;;;;1.23;1.10;;;23.50;77.30;;;;;;5039479;28;20043;-56
2022/09/29 12:13:54;;;;;;;1.70;1.42;;;24.00;71.40;;;;;;5040440;28;20593;-53
2022/09/29 12:16:25;;;;;;;3.13;1.60;;;23.10;71.90;;;;;;5058747;28;20063;-57
2022/09/29 12:19:10;;;;;;;2.17;1.55;;;21.50;73.80;;;;;;5050222;28;20029;-55
2022/09/29 12:21:51;;;;;;;11.70;3.42;;;19.70;78.00;;;;;;5040219;28;20033;-57
2022/09/29 12:24:25;;;;;;;9.98;3.50;;;18.90;82.50;;;;;;5040044;28;20021;-56
2022/09/29 12:26:52;;;;;;;3.25;2.40;;;18.40;82.50;;;;;;5051351;28;20120;-57
2022/09/29 12:29:37;;;;;;;13.63;2.15;;;17.90;83.30;;;;;;5044964;28;20100;-55
2022/09/29 12:32:41;;;;;;;2.15;1.65;;;17.70;84.30;;;;;;5059305;28;20432;-56
2022/09/29 12:35:19;;;;;;;1.85;1.38;;;18.00;85.70;;;;;;5041023;28;20033;-57
2022/09/29 12:38:13;;;;;;;3.80;1.65;;;17.80;83.90;;;;;;5043147;28;20641;-56
2022/09/29 12:41:05;;;;;;;5.10;1.70;;;17.10;85.60;;;;;;5063453;28;20424;-54
2022/09/29 12:44:03;;;;;;;2.90;1.92;;;16.60;87.40;;;;;;5055451;28;20037;-53
2022/09/29 12:46:41;;;;;;;2.20;2.00;;;16.30;90.20;;;;;;5043657;28;20101;-54
2022/09/29 12:49:26;;;;;;;2.13;1.88;;;15.90;91.90;;;;;;5043594;28;20036;-55
2022/09/29 12:51:53;;;;;;;6.15;3.30;;;15.80;92.10;;;;;;5044188;28;20029;-56
2022/09/29 12:54:30;;;;;;;4.78;2.95;;;15.60;91.80;;;;;;5044220;28;20386;-56
2022/09/29 12:57:07;;;;;;;4.70;2.03;;;15.50;93.20;;;;;;5044140;28;20032;-56
2022/09/29 12:59:57;;;;;;;2.17;1.90;;;15.50;93.40;;;;;;5045747;28;20087;-55
2022/09/29 13:02:32;;;;;;;1.73;1.63;;;15.40;93.60;;;;;;5043906;28;20029;-56
2022/09/29 13:05:12;;;;;;;2.58;1.80;;;15.50;92.30;;;;;;5045931;28;20377;-54
2022/09/29 13:08:03;;;;;;;2.45;1.50;;;15.60;92.20;;;;;;5042802;28;20565;-55
2022/09/29 13:10:34;;;;;;;4.57;2.03;;;15.80;92.00;;;;;;5043701;28;20396;-55
2022/09/29 13:13:24;;;;;;;3.85;1.90;;;15.80;92.30;;;;;;5043754;28;20025;-55
2022/09/29 13:16:27;;;;;;;5.65;2.97;;;15.60;92.10;;;;;;5043725;28;20487;-55
2022/09/29 13:19:15;;;;;;;4.38;2.25;;;15.70;92.60;;;;;;5043651;28;20135;-55
2022/09/29 13:22:02;;;;;;;2.88;2.33;;;15.70;92.90;;;;;;5044028;28;20033;-56